createdAt,value
2018-10-17T00:02:09.541Z,13.10
2018-10-17T00:04:43.091Z,13.10
2018-10-17T00:07:17.672Z,13.10
2018-10-17T00:09:51.527Z,13.10
2018-10-17T00:12:25.158Z,13.10
2018-10-17T00:14:59.832Z,13.10
2018-10-17T00:17:33.656Z,13.20
2018-10-17T00:20:08.249Z,13.20
2018-10-17T00:22:41.846Z,13.20
2018-10-17T00:25:15.481Z,13.20
2018-10-17T00:27:49.762Z,13.20
2018-10-17T00:30:23.374Z,13.30
2018-10-17T00:32:57.036Z,13.30
2018-10-17T00:35:31.396Z,13.20
2018-10-17T00:38:05.057Z,13.20
2018-10-17T00:40:38.614Z,13.10
2018-10-17T00:43:13.078Z,13.10
2018-10-17T00:45:46.592Z,13.10
2018-10-17T00:48:20.983Z,13.00
2018-10-17T00:50:54.750Z,13.00
2018-10-17T00:53:28.361Z,13.00
2018-10-17T00:56:01.948Z,12.90
2018-10-17T00:58:35.522Z,12.80
2018-10-17T01:01:09.360Z,12.70
2018-10-17T01:03:42.942Z,12.70
2018-10-17T01:06:16.574Z,12.60
2018-10-17T01:08:50.155Z,12.60
2018-10-17T01:11:23.741Z,12.60
2018-10-17T01:13:57.543Z,12.60
2018-10-17T01:16:31.266Z,12.50
2018-10-17T01:19:04.907Z,12.50
2018-10-17T01:21:38.574Z,12.40
2018-10-17T01:24:13.096Z,12.40
2018-10-17T01:26:46.915Z,12.40
2018-10-17T01:29:20.506Z,12.40
2018-10-17T01:31:54.324Z,12.40
2018-10-17T01:34:28.072Z,12.40
2018-10-17T01:37:02.693Z,12.30
2018-10-17T01:39:36.235Z,12.30
2018-10-17T01:42:10.087Z,12.20
2018-10-17T01:44:43.847Z,12.10
2018-10-17T01:47:18.155Z,12.00
2018-10-17T01:49:52.572Z,12.00
2018-10-17T01:52:26.176Z,12.00
2018-10-17T01:54:59.734Z,12.00
2018-10-17T01:57:33.287Z,12.00
2018-10-17T02:00:06.851Z,12.00
2018-10-17T02:02:40.538Z,12.00
2018-10-17T02:05:14.264Z,11.90
2018-10-17T02:07:48.077Z,11.90
2018-10-17T02:10:21.690Z,11.90
2018-10-17T02:12:55.532Z,11.90
2018-10-17T02:15:29.112Z,11.80
2018-10-17T02:18:02.658Z,11.80
2018-10-17T02:20:37.009Z,11.70
2018-10-17T02:23:10.679Z,11.60
2018-10-17T02:25:44.944Z,11.60
2018-10-17T02:28:18.534Z,11.50
2018-10-17T02:30:52.104Z,11.50
2018-10-17T02:33:25.711Z,11.50
2018-10-17T02:35:59.309Z,11.50
2018-10-17T02:38:34.159Z,11.50
2018-10-17T02:41:07.830Z,11.40
2018-10-17T02:43:41.372Z,11.40
2018-10-17T02:46:15.014Z,11.40
2018-10-17T02:48:48.577Z,11.40
2018-10-17T02:51:22.089Z,11.40
2018-10-17T02:53:55.665Z,11.40
2018-10-17T02:56:29.354Z,11.40
2018-10-17T02:59:03.001Z,11.40
2018-10-17T03:01:36.682Z,11.40
2018-10-17T03:04:10.251Z,11.40
2018-10-17T03:06:44.707Z,11.30
2018-10-17T03:09:18.310Z,11.30
2018-10-17T03:11:51.952Z,11.30
2018-10-17T03:14:25.661Z,11.20
2018-10-17T03:16:59.365Z,11.20
2018-10-17T03:19:33.036Z,11.10
2018-10-17T03:22:06.866Z,11.00
2018-10-17T03:24:41.417Z,11.10
2018-10-17T03:27:15.938Z,11.10
2018-10-17T03:29:49.609Z,11.00
2018-10-17T03:32:23.299Z,11.10
2018-10-17T03:34:56.917Z,11.00
2018-10-17T03:37:31.162Z,11.00
2018-10-17T03:40:04.828Z,11.00
2018-10-17T03:42:38.451Z,11.10
2018-10-17T03:45:12.239Z,11.10
2018-10-17T03:47:45.803Z,11.10
2018-10-17T03:50:19.365Z,11.10
2018-10-17T03:52:52.944Z,11.10
2018-10-17T03:55:26.509Z,11.10
2018-10-17T03:58:00.068Z,11.10
2018-10-17T04:00:33.685Z,11.10
2018-10-17T04:03:07.534Z,11.00
2018-10-17T04:05:41.067Z,11.00
2018-10-17T04:08:14.781Z,10.90
2018-10-17T04:10:48.307Z,11.00
2018-10-17T04:13:21.907Z,11.00
2018-10-17T04:15:55.560Z,11.00
2018-10-17T04:18:29.361Z,11.00
2018-10-17T04:21:02.993Z,10.90
2018-10-17T04:23:36.610Z,10.90
2018-10-17T04:26:10.210Z,10.90
2018-10-17T04:28:43.823Z,10.90
2018-10-17T04:31:17.403Z,10.90
2018-10-17T04:33:50.953Z,10.80
2018-10-17T04:36:24.637Z,10.80
2018-10-17T04:38:58.319Z,10.70
2018-10-17T04:41:31.887Z,10.70
2018-10-17T04:44:05.543Z,10.70
2018-10-17T04:46:39.195Z,10.80
2018-10-17T04:49:12.883Z,10.80
2018-10-17T04:51:46.367Z,10.80
2018-10-17T04:54:19.961Z,10.80
2018-10-17T04:56:53.721Z,10.80
2018-10-17T04:59:27.439Z,10.90
2018-10-17T05:02:01.160Z,10.90
2018-10-17T05:04:34.869Z,10.90
2018-10-17T05:07:09.577Z,10.70
2018-10-17T05:09:43.187Z,10.60
2018-10-17T05:12:16.781Z,10.60
2018-10-17T05:14:50.561Z,10.60
2018-10-17T05:17:25.212Z,10.60
2018-10-17T05:19:58.973Z,10.50
2018-10-17T05:22:33.577Z,10.50
2018-10-17T05:25:07.319Z,10.50
2018-10-17T05:27:41.142Z,10.50
2018-10-17T05:30:14.695Z,10.50
2018-10-17T05:32:48.346Z,10.60
2018-10-17T05:35:22.172Z,10.60
2018-10-17T05:37:55.847Z,10.60
2018-10-17T05:40:29.665Z,10.50
2018-10-17T05:43:03.443Z,10.50
2018-10-17T05:45:37.021Z,10.50
2018-10-17T05:48:10.607Z,10.50
2018-10-17T05:50:44.211Z,10.50
2018-10-17T05:53:17.893Z,10.50
2018-10-17T05:55:51.846Z,10.50
2018-10-17T05:58:25.599Z,10.50
2018-10-17T06:00:59.424Z,10.60
2018-10-17T06:03:33.842Z,10.50
2018-10-17T06:06:08.440Z,10.50
2018-10-17T06:08:42.369Z,10.50
2018-10-17T06:11:16.190Z,10.50
2018-10-17T06:13:49.883Z,10.50
2018-10-17T06:16:24.206Z,10.50
2018-10-17T06:18:57.999Z,10.50
2018-10-17T06:21:32.324Z,10.50
2018-10-17T06:24:06.005Z,10.50
2018-10-17T06:26:39.772Z,10.60
2018-10-17T06:29:13.447Z,10.60
2018-10-17T06:31:47.340Z,10.60
2018-10-17T06:34:21.248Z,10.70
2018-10-17T06:36:55.618Z,10.80
2018-10-17T06:39:29.172Z,10.70
2018-10-17T06:42:02.765Z,10.80
2018-10-17T06:44:36.553Z,10.80
2018-10-17T06:47:10.198Z,10.80
2018-10-17T06:49:43.789Z,10.90
2018-10-17T06:52:17.372Z,10.90
2018-10-17T06:54:50.871Z,10.90
2018-10-17T06:57:24.521Z,10.90
2018-10-17T06:59:58.335Z,10.90
2018-10-17T07:02:32.039Z,11.00
2018-10-17T07:05:05.928Z,11.20
2018-10-17T07:07:39.487Z,11.30
2018-10-17T07:10:13.201Z,11.30
2018-10-17T07:12:47.628Z,11.50
2018-10-17T07:15:22.181Z,11.50
2018-10-17T07:17:55.772Z,11.50
2018-10-17T07:20:29.598Z,11.60
2018-10-17T07:23:03.357Z,11.70
2018-10-17T07:25:37.082Z,11.80
2018-10-17T07:28:10.771Z,11.90
2018-10-17T07:30:44.347Z,12.00
2018-10-17T07:33:17.985Z,12.20
2018-10-17T07:35:52.017Z,12.20
2018-10-17T07:38:25.540Z,12.40
2018-10-17T07:40:59.338Z,13.10
2018-10-17T07:43:33.790Z,14.70
2018-10-17T07:46:07.406Z,14.60
2018-10-17T07:48:41.026Z,15.30
2018-10-17T07:51:15.566Z,17.00
2018-10-17T07:53:50.055Z,17.50
2018-10-17T07:56:24.484Z,17.40
2018-10-17T07:58:58.061Z,17.40
2018-10-17T08:01:31.767Z,17.20
2018-10-17T08:04:06.314Z,17.30
2018-10-17T08:06:40.190Z,17.30
2018-10-17T08:09:13.934Z,17.40
2018-10-17T08:11:48.426Z,17.80
2018-10-17T08:14:22.151Z,18.80
2018-10-17T08:16:55.729Z,19.30
2018-10-17T08:19:29.478Z,19.10
2018-10-17T08:22:03.072Z,19.80
2018-10-17T08:24:36.694Z,20.20
2018-10-17T08:27:10.341Z,20.80
2018-10-17T08:29:43.988Z,21.10
2018-10-17T08:32:17.702Z,21.10
2018-10-17T08:34:51.346Z,21.60
2018-10-17T08:37:25.351Z,22.00
2018-10-17T08:39:59.282Z,22.40
2018-10-17T08:42:33.637Z,22.60
2018-10-17T08:45:08.239Z,22.70
2018-10-17T08:47:41.820Z,22.70
2018-10-17T08:50:15.549Z,22.10
2018-10-17T08:52:50.084Z,22.20
2018-10-17T08:55:24.558Z,22.80
2018-10-17T08:57:58.217Z,22.80
2018-10-17T09:00:31.924Z,23.40
2018-10-17T09:03:05.601Z,23.90
2018-10-17T09:05:39.291Z,23.80
2018-10-17T09:08:12.856Z,23.70
2018-10-17T09:10:46.498Z,23.50
2018-10-17T09:13:20.340Z,23.20
2018-10-17T09:15:53.933Z,23.30
2018-10-17T09:18:27.490Z,23.50
2018-10-17T09:21:01.763Z,23.40
2018-10-17T09:23:35.037Z,23.70
2018-10-17T09:26:08.724Z,24.00
2018-10-17T09:28:43.270Z,23.60
2018-10-17T09:31:17.011Z,23.60
2018-10-17T09:33:50.684Z,23.90
2018-10-17T09:36:24.500Z,24.20
2018-10-17T09:38:58.186Z,24.70
2018-10-17T09:41:32.545Z,24.50
2018-10-17T09:44:06.331Z,24.50
2018-10-17T09:46:40.905Z,24.70
2018-10-17T09:49:15.858Z,25.00
2018-10-17T09:51:49.639Z,25.00
2018-10-17T09:54:24.084Z,25.20
2018-10-17T09:56:57.890Z,25.20
2018-10-17T09:59:31.498Z,25.10
2018-10-17T10:02:05.111Z,25.30
2018-10-17T10:04:39.454Z,25.60
2018-10-17T10:07:13.100Z,25.50
2018-10-17T10:09:46.822Z,25.40
2018-10-17T10:12:20.506Z,24.80
2018-10-17T10:14:54.107Z,25.30
2018-10-17T10:17:28.489Z,25.50
2018-10-17T10:20:01.950Z,25.50
2018-10-17T10:22:35.664Z,25.60
2018-10-17T10:25:09.637Z,25.70
2018-10-17T10:27:43.359Z,25.80
2018-10-17T10:30:17.675Z,25.50
2018-10-17T10:32:51.250Z,25.50
2018-10-17T10:35:24.895Z,25.40
2018-10-17T10:37:58.701Z,25.40
2018-10-17T10:40:32.515Z,25.50
2018-10-17T10:43:06.139Z,25.70
2018-10-17T10:45:39.995Z,25.50
2018-10-17T10:48:13.634Z,25.50
2018-10-17T10:50:47.208Z,25.40
2018-10-17T10:53:21.049Z,25.60
2018-10-17T10:55:54.959Z,25.60
2018-10-17T10:58:28.793Z,25.70
2018-10-17T11:01:02.216Z,25.90
2018-10-17T11:03:36.043Z,26.00
2018-10-17T11:06:09.848Z,26.10
2018-10-17T11:08:43.617Z,26.00
2018-10-17T11:11:17.355Z,25.60
2018-10-17T11:13:51.127Z,25.60
2018-10-17T11:16:24.909Z,25.50
2018-10-17T11:18:58.628Z,25.10
2018-10-17T11:21:32.960Z,25.10
2018-10-17T11:24:08.123Z,24.80
2018-10-17T11:26:43.119Z,24.60
2018-10-17T11:29:16.893Z,24.60
2018-10-17T11:31:50.461Z,24.80
2018-10-17T11:34:24.154Z,24.40
2018-10-17T11:36:57.968Z,24.50
2018-10-17T11:39:31.519Z,24.50
2018-10-17T11:42:05.051Z,24.50
2018-10-17T11:44:38.635Z,24.50
2018-10-17T11:47:12.354Z,24.20
2018-10-17T11:49:46.066Z,23.90
2018-10-17T11:52:20.526Z,23.30
2018-10-17T11:54:54.967Z,23.20
2018-10-17T11:57:28.831Z,23.20
2018-10-17T12:00:02.469Z,23.00
2018-10-17T12:02:36.897Z,23.00
2018-10-17T12:05:10.916Z,23.00
2018-10-17T12:07:44.251Z,22.80
2018-10-17T12:10:18.707Z,22.80
2018-10-17T12:12:52.458Z,22.80
2018-10-17T12:15:26.185Z,22.60
2018-10-17T12:17:59.847Z,22.50
2018-10-17T12:20:33.602Z,22.40
2018-10-17T12:23:07.270Z,22.30
2018-10-17T12:25:41.069Z,22.30
2018-10-17T12:28:15.705Z,22.40
2018-10-17T12:30:49.193Z,22.30
2018-10-17T12:33:22.757Z,22.40
2018-10-17T12:35:56.297Z,22.30
2018-10-17T12:38:30.061Z,22.30
2018-10-17T12:41:03.895Z,22.30
2018-10-17T12:43:37.449Z,22.30
2018-10-17T12:46:11.150Z,22.30
2018-10-17T12:48:45.689Z,22.30
2018-10-17T12:51:19.452Z,22.30
2018-10-17T12:53:53.014Z,22.30
2018-10-17T12:56:26.658Z,22.30
2018-10-17T12:59:00.422Z,22.30
2018-10-17T13:01:34.208Z,22.30
2018-10-17T13:04:07.899Z,22.40
2018-10-17T13:06:41.582Z,22.50
2018-10-17T13:09:15.275Z,22.50
2018-10-17T13:11:48.936Z,22.40
2018-10-17T13:14:22.643Z,22.40
2018-10-17T13:16:56.369Z,22.40
2018-10-17T13:19:30.805Z,22.50
2018-10-17T13:22:04.509Z,22.50
2018-10-17T13:24:38.219Z,22.60
2018-10-17T13:27:11.854Z,22.60
2018-10-17T13:29:45.526Z,22.60
2018-10-17T13:32:19.136Z,22.60
2018-10-17T13:34:52.801Z,22.60
2018-10-17T13:37:26.485Z,22.60
2018-10-17T13:40:00.050Z,22.50
2018-10-17T13:42:33.745Z,22.50
2018-10-17T13:45:08.170Z,22.40
2018-10-17T13:47:42.775Z,22.40
2018-10-17T13:50:16.368Z,22.40
2018-10-17T13:52:49.993Z,22.40
2018-10-17T13:55:23.698Z,22.40
2018-10-17T13:57:57.404Z,22.40
2018-10-17T14:00:31.153Z,22.40
2018-10-17T14:03:04.923Z,22.40
2018-10-17T14:05:39.443Z,22.40
2018-10-17T14:08:13.020Z,22.40
2018-10-17T14:10:46.914Z,22.40
2018-10-17T14:13:20.730Z,22.40
2018-10-17T14:15:54.337Z,22.40
2018-10-17T14:18:28.114Z,22.30
2018-10-17T14:21:02.737Z,22.30
2018-10-17T14:23:36.226Z,22.30
2018-10-17T14:26:09.779Z,22.30
2018-10-17T14:28:43.546Z,22.30
2018-10-17T14:31:17.173Z,22.40
2018-10-17T14:33:50.717Z,22.40
2018-10-17T14:36:25.171Z,22.40
2018-10-17T14:38:58.964Z,22.40
2018-10-17T14:41:32.598Z,22.40
2018-10-17T14:44:06.498Z,22.30
2018-10-17T14:46:40.356Z,22.20
2018-10-17T14:49:14.143Z,22.10
2018-10-17T14:51:47.845Z,22.10
2018-10-17T14:54:21.532Z,22.00
2018-10-17T14:56:55.226Z,22.00
2018-10-17T14:59:29.781Z,21.90
2018-10-17T15:02:04.422Z,21.90
2018-10-17T15:04:38.279Z,21.90
2018-10-17T15:07:11.998Z,21.90
2018-10-17T15:09:45.737Z,21.80
2018-10-17T15:12:19.341Z,21.70
2018-10-17T15:14:53.044Z,21.70
2018-10-17T15:17:26.895Z,21.60
2018-10-17T15:20:00.681Z,21.60
2018-10-17T15:22:34.415Z,21.60
2018-10-17T15:25:08.216Z,21.50
2018-10-17T15:27:42.111Z,21.40
2018-10-17T15:30:15.876Z,21.30
2018-10-17T15:32:49.420Z,21.20
2018-10-17T15:35:23.299Z,21.20
2018-10-17T15:37:57.669Z,21.10
2018-10-17T15:40:31.438Z,21.10
2018-10-17T15:43:05.977Z,21.00
2018-10-17T15:45:39.620Z,21.00
2018-10-17T15:48:13.464Z,21.00
2018-10-17T15:50:46.998Z,20.90
2018-10-17T15:53:20.690Z,20.90
2018-10-17T15:55:54.346Z,20.80
2018-10-17T15:58:27.975Z,20.60
2018-10-17T16:01:02.355Z,20.40
2018-10-17T16:03:36.834Z,20.30
2018-10-17T16:06:10.727Z,20.20
2018-10-17T16:08:45.203Z,20.10
2018-10-17T16:11:19.002Z,20.10
2018-10-17T16:13:53.513Z,19.90
2018-10-17T16:16:27.411Z,19.80
2018-10-17T16:19:01.147Z,19.70
2018-10-17T16:21:34.752Z,19.60
2018-10-17T16:24:09.242Z,19.40
2018-10-17T16:26:42.879Z,19.40
2018-10-17T16:29:16.581Z,19.30
2018-10-17T16:31:50.148Z,19.20
2018-10-17T16:34:23.697Z,19.20
2018-10-17T16:36:57.386Z,19.10
2018-10-17T16:39:31.183Z,19.00
2018-10-17T16:42:05.786Z,18.90
2018-10-17T16:44:39.336Z,18.90
2018-10-17T16:47:13.055Z,18.80
2018-10-17T16:49:47.010Z,18.70
2018-10-17T16:52:21.451Z,18.60
2018-10-17T16:54:55.209Z,18.60
2018-10-17T16:57:28.751Z,18.50
2018-10-17T17:00:02.554Z,18.50
2018-10-17T17:02:36.298Z,18.40
2018-10-17T17:05:10.077Z,18.30
2018-10-17T17:07:43.812Z,18.20
2018-10-17T17:10:17.447Z,18.10
2018-10-17T17:12:51.030Z,18.10
2018-10-17T17:15:24.677Z,18.10
2018-10-17T17:17:58.536Z,18.00
2018-10-17T17:20:32.997Z,17.80
2018-10-17T17:23:06.569Z,17.80
2018-10-17T17:25:40.206Z,17.80
2018-10-17T17:28:14.675Z,17.70
2018-10-17T17:30:48.598Z,17.70
2018-10-17T17:33:22.144Z,17.60
2018-10-17T17:35:55.939Z,17.60
2018-10-17T17:38:29.723Z,17.60
2018-10-17T17:41:03.362Z,17.50
2018-10-17T17:43:37.192Z,17.40
2018-10-17T17:46:10.996Z,17.40
2018-10-17T17:48:44.698Z,17.40
2018-10-17T17:51:18.282Z,17.30
2018-10-17T17:53:52.122Z,17.20
2018-10-17T17:56:26.593Z,17.20
2018-10-17T17:59:00.308Z,17.10
2018-10-17T18:01:33.961Z,17.10
2018-10-17T18:04:08.379Z,16.90
2018-10-17T18:06:41.945Z,16.90
2018-10-17T18:09:15.626Z,16.90
2018-10-17T18:11:50.033Z,16.80
2018-10-17T18:14:23.790Z,16.80
2018-10-17T18:16:57.439Z,16.80
2018-10-17T18:19:31.038Z,16.70
2018-10-17T18:22:05.545Z,16.70
2018-10-17T18:24:39.137Z,16.70
2018-10-17T18:27:12.661Z,16.70
2018-10-17T18:29:47.020Z,16.60
2018-10-17T18:32:20.714Z,16.60
2018-10-17T18:34:54.443Z,16.70
2018-10-17T18:37:28.052Z,16.60
2018-10-17T18:40:01.863Z,16.50
2018-10-17T18:42:35.774Z,16.40
2018-10-17T18:45:09.565Z,16.40
2018-10-17T18:47:43.976Z,16.30
2018-10-17T18:50:18.514Z,16.30
2018-10-17T18:52:52.942Z,16.20
2018-10-17T18:55:26.698Z,16.20
2018-10-17T18:58:00.330Z,16.20
2018-10-17T19:00:34.097Z,16.10
2018-10-17T19:03:07.741Z,16.10
2018-10-17T19:05:42.337Z,16.20
2018-10-17T19:08:16.041Z,16.10
2018-10-17T19:10:49.824Z,16.10
2018-10-17T19:13:23.531Z,16.20
2018-10-17T19:15:58.060Z,16.10
2018-10-17T19:18:31.796Z,16.10
2018-10-17T19:21:05.637Z,16.10
2018-10-17T19:23:39.465Z,16.00
2018-10-17T19:26:13.266Z,16.00
2018-10-17T19:28:47.036Z,16.00
2018-10-17T19:31:21.613Z,15.90
2018-10-17T19:33:55.306Z,15.80
2018-10-17T19:36:29.015Z,15.80
2018-10-17T19:39:02.919Z,15.80
2018-10-17T19:41:37.329Z,15.70
2018-10-17T19:44:11.165Z,15.60
2018-10-17T19:46:44.894Z,15.70
2018-10-17T19:49:18.821Z,15.60
2018-10-17T19:51:52.557Z,15.60
2018-10-17T19:54:26.163Z,15.60
2018-10-17T19:57:00.006Z,15.60
2018-10-17T19:59:34.527Z,15.50
2018-10-17T20:02:08.400Z,15.50
2018-10-17T20:04:42.047Z,15.50
2018-10-17T20:07:16.429Z,15.40
2018-10-17T20:09:50.222Z,15.40
2018-10-17T20:12:24.776Z,15.30
2018-10-17T20:14:58.552Z,15.30
2018-10-17T20:17:33.099Z,15.30
2018-10-17T20:20:06.824Z,15.30
2018-10-17T20:22:40.601Z,15.40
2018-10-17T20:25:15.249Z,15.40
2018-10-17T20:27:48.737Z,15.30
2018-10-17T20:30:22.634Z,15.30
2018-10-17T20:32:56.491Z,15.30
2018-10-17T20:35:30.254Z,15.30
2018-10-17T20:38:04.225Z,15.30
2018-10-17T20:40:37.803Z,15.10
2018-10-17T20:43:12.378Z,14.90
2018-10-17T20:45:46.160Z,14.90
2018-10-17T20:48:19.942Z,14.90
2018-10-17T20:50:53.712Z,14.90
2018-10-17T20:53:27.410Z,14.80
2018-10-17T20:56:01.316Z,14.70
2018-10-17T20:58:34.885Z,14.70
2018-10-17T21:01:09.246Z,14.60
2018-10-17T21:03:42.958Z,14.60
2018-10-17T21:06:17.266Z,14.60
2018-10-17T21:08:50.903Z,14.60
2018-10-17T21:11:24.588Z,14.60
2018-10-17T21:13:59.065Z,14.50
2018-10-17T21:16:33.487Z,14.50
2018-10-17T21:19:07.062Z,14.40
2018-10-17T21:21:40.672Z,14.40
2018-10-17T21:24:14.357Z,14.40
2018-10-17T21:26:48.926Z,14.40
2018-10-17T21:29:22.593Z,14.40
2018-10-17T21:31:56.314Z,14.40
2018-10-17T21:34:29.891Z,14.30
2018-10-17T21:37:03.656Z,14.30
2018-10-17T21:39:37.406Z,14.30
2018-10-17T21:42:11.154Z,14.30
2018-10-17T21:44:44.680Z,14.30
2018-10-17T21:47:18.447Z,14.20
2018-10-17T21:49:52.681Z,14.10
2018-10-17T21:52:26.353Z,14.10
2018-10-17T21:54:59.962Z,14.10
2018-10-17T21:57:33.554Z,14.10
2018-10-17T22:00:07.894Z,14.10
2018-10-17T22:02:42.360Z,14.10
2018-10-17T22:05:16.851Z,14.10
2018-10-17T22:07:50.561Z,14.10
2018-10-17T22:10:24.443Z,14.10
2018-10-17T22:12:58.003Z,14.10
2018-10-17T22:15:31.671Z,14.00
2018-10-17T22:18:05.466Z,13.90
2018-10-17T22:20:39.051Z,13.90
2018-10-17T22:23:12.827Z,13.90
2018-10-17T22:25:46.405Z,13.80
2018-10-17T22:28:19.980Z,13.80
2018-10-17T22:30:53.754Z,13.80
2018-10-17T22:33:27.333Z,13.70
2018-10-17T22:36:00.862Z,13.70
2018-10-17T22:38:34.435Z,13.60
2018-10-17T22:41:08.088Z,13.60
2018-10-17T22:43:41.661Z,13.50
2018-10-17T22:46:15.215Z,13.50
2018-10-17T22:48:49.163Z,13.50
2018-10-17T22:51:23.689Z,13.40
2018-10-17T22:53:58.222Z,13.30
2018-10-17T22:56:31.878Z,13.30
2018-10-17T22:59:05.508Z,13.30
2018-10-17T23:01:39.123Z,13.40
2018-10-17T23:04:12.738Z,13.40
2018-10-17T23:06:46.563Z,13.30
2018-10-17T23:09:20.163Z,13.30
2018-10-17T23:11:53.733Z,13.30
2018-10-17T23:14:27.344Z,13.30
2018-10-17T23:17:01.038Z,13.30
2018-10-17T23:19:34.617Z,13.40
2018-10-17T23:22:08.199Z,13.40
2018-10-17T23:24:41.815Z,13.40
2018-10-17T23:27:15.388Z,13.40
2018-10-17T23:29:49.874Z,13.40
2018-10-17T23:32:24.370Z,13.40
2018-10-17T23:34:57.993Z,13.40
2018-10-17T23:37:32.391Z,13.30
2018-10-17T23:40:06.085Z,13.20
2018-10-17T23:42:39.756Z,13.30
2018-10-17T23:45:13.529Z,13.30
2018-10-17T23:47:47.368Z,13.20
2018-10-17T23:50:21.954Z,13.20
2018-10-17T23:52:55.641Z,13.10
2018-10-17T23:55:29.277Z,13.10
2018-10-17T23:58:03.074Z,13.20
